This is the latest recevied weather packets stored in our database for station/object OH2TH. If no packets are shown the sender has not sent any weather packets the latest 10 day(s).
| Time | Temp. | Humidity | Pressure | Rain* | Wind** | Luminosity | Snow |
|---|---|---|---|---|---|---|---|
| 1777990503 | 13.33° C | 29% | 100 hPa | 29.72 mm | - | - | - |
| 1777989603 | 12.78° C | 29% | 100 hPa | 29.72 mm | - | - | - |
| 1777988703 | 12.78° C | 31% | 100 hPa | 29.72 mm | - | - | - |
| 1777987803 | 13.33° C | 30% | 100 hPa | 29.72 mm | - | - | - |
| 1777986903 | 12.78° C | 34% | 100 hPa | 29.72 mm | - | - | - |
| 1777986003 | 12.78° C | 37% | 100 hPa | 29.72 mm | - | - | - |
| 1777985102 | 13.33° C | 36% | 100 hPa | 29.72 mm | - | - | - |
| 1777984202 | 13.33° C | 36% | 100 hPa | 29.72 mm | - | - | - |
| 1777983302 | 13.33° C | 40% | 100 hPa | 29.72 mm | - | - | - |
| 1777982402 | 13.33° C | 40% | 100 hPa | 29.72 mm | - | - | - |
| 1777981502 | 13.33° C | 37% | 100 hPa | 44.2 mm | - | - | - |
| 1777980601 | 13.33° C | 40% | 100 hPa | 44.2 mm | - | - | - |
| 1777979701 | 13.89° C | 35% | 100 hPa | 44.2 mm | - | - | - |
| 1777978801 | 13.33° C | 37% | 100 hPa | 44.2 mm | - | - | - |
| 1777977901 | 13.33° C | 37% | 100 hPa | 122.68 mm | - | - | - |
| 1777977001 | 13.33° C | 41% | 100 hPa | 122.68 mm | - | - | - |
| 1777976100 | 13.33° C | 42% | 100 hPa | 122.68 mm | - | - | - |
| 1777975200 | 13.33° C | 43% | 100 hPa | 198.88 mm | - | - | - |
| 1777974301 | 14.44° C | 38% | 100 hPa | 198.88 mm | - | - | - |
| 1777973400 | 13.33° C | 44% | 100 hPa | 198.88 mm | - | - | - |
| 1777972500 | 12.78° C | 50% | 100 hPa | 198.88 mm | - | - | - |
| 1777971605 | 12.78° C | 50% | 100 hPa | 198.88 mm | - | - | - |
| 1777970705 | 13.33° C | 51% | 100 hPa | 237.74 mm | - | - | - |
| 1777969804 | 13.33° C | 45% | 100 hPa | 237.74 mm | - | - | - |
| 1777968904 | 13.33° C | 47% | 100 hPa | 237.74 mm | - | - | - |
* Rain latest 24 hours (hover to see other rain measurements)
** Current wind speed in m/s (hover to see current wind gust speed)